Time;durP1;ratioP1;P1;durP2;ratioP2;P2;SDS_P1;SDS_P2;PMS_P1;PMS_P2;Temp;Humidity;BMP_temperature;BMP_pressure;BME280_temperature;BME280_humidity;BME280_pressure;Samples;Min_cycle;Max_cycle;Signal;HPM_P1;HPM_P2
2023/07/03 00:00:14;;;;;;;16.77;3.60;;;16.50;99.90;;;;;;5111312;28;20115;-67
2023/07/03 00:02:41;;;;;;;19.95;3.60;;;16.50;99.90;;;;;;5110882;28;20123;-68
2023/07/03 00:05:10;;;;;;;16.07;3.60;;;16.50;99.90;;;;;;5096977;28;20051;-66
2023/07/03 00:07:37;;;;;;;14.13;3.75;;;16.50;99.90;;;;;;5092370;28;20285;-67
2023/07/03 00:10:06;;;;;;;;;;;16.50;99.90;;;;;;5092353;28;20097;-68
2023/07/03 00:12:32;;;;;;;16.88;3.45;;;16.40;99.90;;;;;;5092496;28;19932;-67
2023/07/03 00:14:58;;;;;;;17.10;3.30;;;16.40;99.90;;;;;;5090589;28;20044;-68
2023/07/03 00:17:24;;;;;;;15.60;3.47;;;16.40;99.90;;;;;;5092560;28;20048;-67
2023/07/03 00:19:50;;;;;;;15.77;3.30;;;16.40;99.90;;;;;;5091732;28;20048;-67
2023/07/03 00:22:15;;;;;;;15.38;3.83;;;16.30;99.90;;;;;;5106817;28;20056;-67
2023/07/03 00:24:41;;;;;;;20.67;3.50;;;16.40;99.90;;;;;;5112616;28;20042;-67
2023/07/03 00:27:07;;;;;;;19.63;3.70;;;16.30;99.90;;;;;;5127824;28;20075;-67
2023/07/03 00:29:33;;;;;;;16.40;3.58;;;16.30;99.90;;;;;;5128480;28;20108;-68
2023/07/03 00:32:00;;;;;;;17.27;3.87;;;16.20;99.90;;;;;;5145387;27;20047;-67
2023/07/03 00:34:27;;;;;;;18.88;3.72;;;16.20;99.90;;;;;;5149696;27;20317;-67
2023/07/03 00:36:53;;;;;;;16.15;3.40;;;16.20;99.90;;;;;;5097385;28;20104;-67
2023/07/03 00:39:20;;;;;;;18.65;3.95;;;16.10;99.90;;;;;;5097190;28;20056;-67
2023/07/03 00:41:46;;;;;;;18.73;3.63;;;16.10;99.90;;;;;;5115670;28;20094;-68
2023/07/03 00:44:14;;;;;;;18.38;3.60;;;16.00;99.90;;;;;;5116060;27;20048;-67
2023/07/03 00:46:46;;;;;;;19.17;3.38;;;16.00;99.90;;;;;;5115718;28;20079;-67
2023/07/03 00:49:12;;;;;;;19.00;3.60;;;16.00;99.90;;;;;;5115083;28;20047;-67
2023/07/03 00:51:41;;;;;;;16.20;3.70;;;16.00;99.90;;;;;;5115483;28;20046;-66
2023/07/03 00:54:07;;;;;;;23.58;3.90;;;16.00;99.90;;;;;;5115146;28;20455;-66
2023/07/03 00:56:33;;;;;;;15.93;2.92;;;16.10;99.90;;;;;;5095748;28;20136;-67
2023/07/03 00:58:58;;;;;;;18.20;3.40;;;16.00;99.90;;;;;;5076978;28;20086;-66
2023/07/03 01:01:49;;;;;;;19.65;4.35;;;16.00;99.90;;;;;;5094023;28;20146;-67
2023/07/03 01:04:21;;;;;;;18.25;3.88;;;16.00;99.90;;;;;;5094907;28;20557;-67
2023/07/03 01:06:54;;;;;;;16.52;3.75;;;16.00;99.90;;;;;;5093962;28;20101;-70
2023/07/03 01:09:22;;;;;;;16.30;3.90;;;16.10;99.90;;;;;;5095020;28;20048;-67
2023/07/03 01:11:48;;;;;;;16.20;3.22;;;16.10;99.90;;;;;;5093835;28;20501;-70
2023/07/03 01:14:18;;;;;;;16.95;3.42;;;16.10;99.90;;;;;;5094079;28;20047;-66
2023/07/03 01:16:47;;;;;;;18.23;3.55;;;16.10;99.90;;;;;;5093965;28;20044;-67
2023/07/03 01:19:18;;;;;;;19.27;3.30;;;16.20;99.90;;;;;;5108005;28;20047;-67
2023/07/03 01:21:54;;;;;;;14.90;3.75;;;16.10;99.90;;;;;;5115509;28;20039;-66
2023/07/03 01:24:37;;;;;;;15.70;3.40;;;16.10;99.90;;;;;;5096973;28;20051;-68
2023/07/03 01:27:06;;;;;;;21.52;3.47;;;16.10;99.90;;;;;;5113301;28;20136;-66
2023/07/03 01:29:33;;;;;;;19.92;3.50;;;16.10;99.90;;;;;;5114488;28;20059;-66
2023/07/03 01:32:00;;;;;;;20.60;3.85;;;16.10;99.90;;;;;;5114637;28;20411;-65
2023/07/03 01:34:27;;;;;;;14.30;3.20;;;16.10;99.90;;;;;;5114043;28;20472;-67
2023/07/03 01:36:55;;;;;;;;;;;16.10;99.90;;;;;;5114762;28;20052;-67
2023/07/03 01:39:21;;;;;;;25.00;3.35;;;16.10;99.90;;;;;;5113378;28;19966;-68
2023/07/03 01:41:48;;;;;;;20.67;3.20;;;16.10;99.90;;;;;;5113674;28;20116;-66
2023/07/03 01:44:14;;;;;;;18.80;3.55;;;16.20;99.90;;;;;;5113459;28;20062;-68
2023/07/03 01:46:39;;;;;;;15.98;3.50;;;16.10;99.90;;;;;;5129658;27;20040;-67
2023/07/03 01:49:12;;;;;;;23.38;3.60;;;16.10;99.90;;;;;;5114166;28;20164;-67
2023/07/03 01:51:52;;;;;;;21.08;3.75;;;16.10;99.90;;;;;;5094831;28;20048;-67
2023/07/03 01:54:31;;;;;;;18.55;3.88;;;16.20;99.90;;;;;;5094224;28;20044;-68
2023/07/03 01:56:59;;;;;;;20.23;3.78;;;16.10;99.90;;;;;;5093738;28;20396;-65
2023/07/03 01:59:29;;;;;;;20.95;4.18;;;16.10;99.90;;;;;;5127002;27;20131;-66
2023/07/03 02:02:09;;;;;;;17.77;3.63;;;16.00;99.90;;;;;;5092539;28;20050;-68
2023/07/03 02:04:50;;;;;;;16.48;3.55;;;16.10;99.90;;;;;;5094269;28;20415;-67
2023/07/03 02:07:18;;;;;;;18.08;3.33;;;16.00;99.90;;;;;;5093674;28;20040;-67
2023/07/03 02:09:44;;;;;;;21.92;3.58;;;16.00;99.90;;;;;;5093760;28;20403;-67
2023/07/03 02:12:11;;;;;;;16.00;3.42;;;16.00;99.90;;;;;;5093634;28;20039;-67
2023/07/03 02:14:38;;;;;;;16.63;3.95;;;16.00;99.90;;;;;;5093559;28;20048;-67
2023/07/03 02:17:06;;;;;;;20.42;3.60;;;16.00;99.90;;;;;;5092997;28;20466;-67
2023/07/03 02:19:33;;;;;;;21.67;3.50;;;16.00;99.90;;;;;;5096259;28;20406;-67
2023/07/03 02:21:59;;;;;;;19.95;3.83;;;16.00;99.90;;;;;;5113528;28;20051;-66
2023/07/03 02:24:25;;;;;;;22.17;3.15;;;16.00;99.90;;;;;;5113166;28;20055;-67
2023/07/03 02:26:52;;;;;;;16.13;3.07;;;16.00;99.90;;;;;;5112188;28;20086;-67
2023/07/03 02:29:18;;;;;;;23.52;4.35;;;16.00;99.90;;;;;;5095717;28;20063;-66
2023/07/03 02:31:44;;;;;;;22.92;3.03;;;16.10;99.90;;;;;;5146874;27;20054;-66
2023/07/03 02:34:10;;;;;;;21.90;2.90;;;16.10;99.90;;;;;;5113441;28;20035;-68
2023/07/03 02:36:37;;;;;;;21.30;3.93;;;16.10;99.90;;;;;;5112827;28;20058;-67
2023/07/03 02:39:05;;;;;;;20.48;3.50;;;16.10;99.90;;;;;;5112309;28;20060;-67
2023/07/03 02:41:32;;;;;;;21.60;3.60;;;16.00;99.90;;;;;;5113486;28;20044;-66
2023/07/03 02:43:57;;;;;;;29.98;3.55;;;16.10;99.90;;;;;;5113368;28;20051;-69
2023/07/03 02:46:23;;;;;;;25.10;3.42;;;16.10;99.90;;;;;;5113129;28;20048;-67
2023/07/03 02:48:49;;;;;;;22.35;3.72;;;16.10;99.90;;;;;;5113551;28;20039;-68
2023/07/03 02:51:15;;;;;;;15.98;3.25;;;16.00;99.90;;;;;;5096738;28;20087;-67
2023/07/03 02:53:42;;;;;;;21.88;3.50;;;16.00;99.90;;;;;;5092944;28;20130;-68
2023/07/03 02:56:08;;;;;;;19.05;3.15;;;;;;;;;;5090928;28;20487;-67
2023/07/03 02:58:34;;;;;;;23.45;4.00;;;;;;;;;;5092830;28;20495;-68
2023/07/03 03:01:01;;;;;;;21.57;3.33;;;16.50;99.90;;;;;;5092470;28;20096;-68
2023/07/03 03:03:28;;;;;;;22.02;4.20;;;15.60;99.90;;;;;;5093420;28;20622;-66
2023/07/03 03:05:55;;;;;;;21.63;3.63;;;15.60;99.90;;;;;;5091569;28;20397;-67
2023/07/03 03:08:21;;;;;;;18.13;3.67;;;15.50;99.90;;;;;;5091414;28;20388;-68
2023/07/03 03:10:48;;;;;;;19.25;3.50;;;15.60;99.90;;;;;;5093300;28;20396;-67
2023/07/03 03:13:13;;;;;;;19.08;3.88;;;15.50;99.90;;;;;;5091257;28;20055;-67
2023/07/03 03:15:40;;;;;;;20.30;3.47;;;15.40;99.90;;;;;;5075029;28;20044;-67
2023/07/03 03:18:06;;;;;;;18.83;3.45;;;15.40;99.90;;;;;;5091162;28;20392;-68
2023/07/03 03:20:32;;;;;;;18.73;3.70;;;15.30;99.90;;;;;;5125665;27;20105;-66
2023/07/03 03:22:58;;;;;;;16.23;3.50;;;15.30;99.90;;;;;;5091537;28;20051;-67
2023/07/03 03:25:24;;;;;;;21.50;3.53;;;15.30;99.90;;;;;;5112405;28;20120;-67
2023/07/03 03:27:49;;;;;;;22.17;3.05;;;15.20;99.90;;;;;;5110569;28;20055;-66
2023/07/03 03:30:15;;;;;;;21.15;3.85;;;15.20;99.90;;;;;;5128214;28;20122;-67
2023/07/03 03:32:42;;;;;;;16.35;2.58;;;15.20;99.90;;;;;;5111971;28;20040;-67
2023/07/03 03:35:08;;;;;;;17.42;3.70;;;15.10;99.90;;;;;;5111300;28;20040;-66
2023/07/03 03:37:34;;;;;;;19.27;3.45;;;15.10;99.90;;;;;;5112920;28;20047;-67
2023/07/03 03:40:00;;;;;;;15.30;3.00;;;15.00;99.90;;;;;;5111700;28;20096;-68
2023/07/03 03:42:25;;;;;;;20.48;3.50;;;15.00;99.90;;;;;;5077498;28;20047;-66
2023/07/03 03:44:51;;;;;;;14.60;3.20;;;15.00;99.90;;;;;;5110697;28;20036;-66
2023/07/03 03:47:19;;;;;;;20.15;3.65;;;14.90;99.90;;;;;;5111260;28;20088;-66
2023/07/03 03:49:45;;;;;;;17.08;3.22;;;14.80;99.90;;;;;;5112537;28;20047;-67
2023/07/03 03:52:10;;;;;;;18.33;3.47;;;14.80;99.90;;;;;;5128618;27;20044;-67
2023/07/03 03:54:39;;;;;;;13.77;3.50;;;;;;;;;;5111659;28;20372;-67
2023/07/03 03:57:05;;;;;;;18.77;3.47;;;14.60;99.90;;;;;;5111083;28;20083;-68
2023/07/03 03:59:31;;;;;;;15.05;3.35;;;14.50;99.90;;;;;;5094257;28;20087;-66
2023/07/03 04:01:56;;;;;;;18.67;3.22;;;14.50;99.90;;;;;;5107114;28;20053;-66
2023/07/03 04:04:22;;;;;;;20.45;3.75;;;14.40;99.90;;;;;;5057376;28;20136;-67
2023/07/03 04:06:48;;;;;;;15.98;3.50;;;14.40;99.90;;;;;;5090996;28;20187;-67
2023/07/03 04:09:14;;;;;;;19.13;3.10;;;14.40;99.90;;;;;;5095694;28;20036;-67
2023/07/03 04:11:40;;;;;;;19.42;3.80;;;;;;;;;;5095871;28;20044;-66
2023/07/03 04:14:06;;;;;;;16.70;3.17;;;;;;;;;;5095279;28;20063;-67
2023/07/03 04:16:32;;;;;;;16.27;3.47;;;;;;;;;;5095407;28;20551;-66
2023/07/03 04:18:59;;;;;;;18.08;3.00;;;;;;;;;;5080870;28;20040;-66
2023/07/03 04:21:25;;;;;;;18.95;3.17;;;;;;;;;;5098581;28;20047;-66
2023/07/03 04:23:51;;;;;;;12.45;2.90;;;;;;;;;;5115047;28;20046;-66
2023/07/03 04:26:17;;;;;;;13.35;2.85;;;;;;;;;;5097359;28;20048;-66
2023/07/03 04:28:43;;;;;;;13.73;3.13;;;;;;;;;;5115064;28;20051;-66
2023/07/03 04:31:09;;;;;;;13.57;2.40;;;;;;;;;;5098339;28;20056;-67
2023/07/03 04:33:35;;;;;;;15.40;3.07;;;;;;;;;;5114415;28;20399;-66
2023/07/03 04:36:01;;;;;;;18.33;3.63;;;;;;;;;;5114191;28;20039;-67
2023/07/03 04:38:27;;;;;;;11.15;2.42;;;;;;;;;;5115455;28;20043;-67
2023/07/03 04:40:54;;;;;;;17.42;2.92;;;;;;;;;;5115960;28;20036;-67
2023/07/03 04:43:20;;;;;;;13.65;3.20;;;;;;;;;;5115547;28;20044;-67
2023/07/03 04:45:48;;;;;;;13.07;2.72;;;;;;;;;;5115967;28;20048;-67
2023/07/03 04:48:14;;;;;;;12.65;3.08;;;;;;;;;;5115908;28;20177;-68
2023/07/03 04:50:41;;;;;;;13.85;2.92;;;;;;;;;;5114644;28;20048;-67
2023/07/03 04:53:07;;;;;;;18.48;3.38;;;;;;;;;;5096908;28;20376;-67
2023/07/03 04:55:33;;;;;;;14.85;2.95;;;;;;;;;;5113946;28;20043;-67
2023/07/03 04:58:00;;;;;;;15.75;2.88;;;;;;;;;;5115517;28;20067;-67
2023/07/03 05:00:27;;;;;;;16.13;3.40;;;;;;;;;;5114938;28;20507;-67
2023/07/03 05:02:57;;;;;;;14.15;3.08;;;;;;;;;;5114386;28;20441;-67
2023/07/03 05:05:23;;;;;;;13.70;2.60;;;;;;;;;;5114787;28;20131;-66
2023/07/03 05:07:49;;;;;;;10.47;2.30;;;;;;;;;;5114338;28;20097;-65
2023/07/03 05:10:16;;;;;;;11.48;2.35;;;;;;;;;;5105891;28;20449;-67
2023/07/03 05:12:42;;;;;;;13.50;2.45;;;;;;;;;;5094750;28;20385;-66
2023/07/03 05:15:10;;;;;;;9.98;2.10;;;;;;;;;;5094593;28;20506;-67
2023/07/03 05:17:38;;;;;;;15.20;2.80;;;;;;;;;;5094454;28;20050;-67
2023/07/03 05:20:08;;;;;;;16.65;2.83;;;;;;;;;;5094641;28;20086;-66
2023/07/03 05:22:35;;;;;;;12.43;2.50;;;;;;;;;;5106812;28;20119;-66
2023/07/03 05:25:01;;;;;;;15.98;2.45;;;;;;;;;;5115113;28;20097;-67
2023/07/03 05:27:27;;;;;;;10.87;2.27;;;;;;;;;;5112517;28;20491;-66
2023/07/03 05:29:53;;;;;;;16.13;2.60;;;;;;;;;;5113846;28;20059;-65
2023/07/03 05:32:19;;;;;;;13.83;2.30;;;;;;;;;;5114087;28;20048;-67
2023/07/03 05:34:45;;;;;;;10.80;2.10;;;;;;;;;;5096419;28;20120;-67
2023/07/03 05:37:12;;;;;;;17.05;2.55;;;;;;;;;;5114608;28;20069;-66
2023/07/03 05:39:38;;;;;;;12.37;2.53;;;;;;;;;;5114441;28;20130;-67
2023/07/03 05:42:04;;;;;;;14.65;2.38;;;;;;;;;;5113850;28;20328;-66
2023/07/03 05:44:30;;;;;;;12.88;2.05;;;;;;;;;;5112506;28;20039;-67
2023/07/03 05:46:56;;;;;;;12.30;1.90;;;;;;;;;;5096277;28;20043;-67
2023/07/03 05:49:22;;;;;;;14.87;1.70;;;;;;;;;;5113210;28;20491;-65
2023/07/03 05:51:49;;;;;;;9.53;1.67;;;;;;;;;;5114500;28;20047;-68
2023/07/03 05:54:16;;;;;;;9.60;1.47;;;16.50;99.90;;;;;;5113661;28;20391;-67
2023/07/03 05:56:43;;;;;;;13.50;1.50;;;16.50;99.90;;;;;;5130659;27;20144;-67
2023/07/03 05:59:09;;;;;;;9.35;1.90;;;16.40;99.90;;;;;;5085446;28;20048;-67
2023/07/03 06:01:34;;;;;;;11.63;2.17;;;16.30;99.90;;;;;;5102843;28;20050;-67
2023/07/03 06:04:00;;;;;;;10.75;1.60;;;16.20;99.90;;;;;;5114264;28;20047;-67
2023/07/03 06:06:26;;;;;;;6.82;1.10;;;16.20;99.90;;;;;;5112563;28;20048;-68
2023/07/03 06:08:51;;;;;;;6.97;1.25;;;16.30;99.90;;;;;;5113192;28;20126;-67
2023/07/03 06:11:17;;;;;;;11.10;1.50;;;16.30;99.90;;;;;;5113202;28;20179;-66
2023/07/03 06:13:43;;;;;;;10.07;1.33;;;16.40;99.90;;;;;;5129927;27;20070;-67
2023/07/03 06:16:08;;;;;;;5.97;1.10;;;16.10;99.90;;;;;;5147056;27;20483;-67
2023/07/03 06:18:34;;;;;;;10.77;1.65;;;16.50;99.90;;;;;;5111645;28;20043;-67
2023/07/03 06:21:00;;;;;;;8.50;1.08;;;16.60;99.90;;;;;;5113747;28;20463;-69
2023/07/03 06:23:26;;;;;;;4.65;0.80;;;16.40;99.90;;;;;;5112823;28;20395;-67
2023/07/03 06:25:51;;;;;;;8.88;0.88;;;16.40;99.90;;;;;;5146595;27;20050;-67
2023/07/03 06:28:17;;;;;;;10.70;0.98;;;16.30;99.90;;;;;;5113996;28;20059;-66
2023/07/03 06:30:48;;;;;;;10.02;1.10;;;16.40;99.90;;;;;;5112703;28;20060;-66
2023/07/03 06:33:14;;;;;;;9.48;1.00;;;16.40;99.90;;;;;;5112583;28;20053;-67
2023/07/03 06:35:40;;;;;;;8.10;0.83;;;16.60;99.90;;;;;;5128784;27;20398;-68
2023/07/03 06:38:07;;;;;;;11.10;1.27;;;16.70;99.90;;;;;;5147225;27;20052;-67
2023/07/03 06:40:32;;;;;;;;;;;16.80;99.90;;;;;;5112652;28;20066;-67
2023/07/03 06:42:58;;;;;;;11.07;1.40;;;17.00;99.90;;;;;;5113933;28;19920;-67
2023/07/03 06:45:24;;;;;;;10.38;1.20;;;17.20;99.90;;;;;;5147094;27;20483;-68
2023/07/03 06:47:50;;;;;;;9.98;1.00;;;17.40;99.90;;;;;;5112999;28;20047;-67
2023/07/03 06:50:15;;;;;;;13.85;1.05;;;17.50;99.90;;;;;;5112026;28;20088;-66
2023/07/03 06:52:42;;;;;;;9.73;0.90;;;17.60;99.90;;;;;;5145161;27;20047;-66
2023/07/03 06:55:08;;;;;;;9.02;1.02;;;17.70;99.90;;;;;;5113572;28;20120;-66
2023/07/03 06:57:34;;;;;;;7.55;0.98;;;17.80;99.90;;;;;;5095447;28;20043;-68
2023/07/03 07:00:00;;;;;;;8.88;1.00;;;17.80;99.90;;;;;;5109764;28;20399;-67
2023/07/03 07:02:26;;;;;;;8.77;0.77;;;18.00;99.90;;;;;;5078550;28;20051;-67
2023/07/03 07:04:55;;;;;;;7.50;0.75;;;18.00;99.90;;;;;;5111290;28;20191;-67
2023/07/03 07:07:21;;;;;;;8.57;0.50;;;18.00;99.90;;;;;;5113562;28;20127;-67
2023/07/03 07:09:46;;;;;;;8.38;1.00;;;18.00;99.90;;;;;;5100385;28;20594;-67
2023/07/03 07:12:12;;;;;;;8.23;0.90;;;17.90;99.90;;;;;;5091715;28;20052;-66
2023/07/03 07:14:38;;;;;;;6.73;1.00;;;17.80;99.90;;;;;;5092503;28;20079;-68
2023/07/03 07:17:04;;;;;;;9.97;0.93;;;18.00;99.90;;;;;;5092979;28;20044;-66
2023/07/03 07:19:30;;;;;;;6.13;0.97;;;18.00;99.90;;;;;;5091221;28;20040;-66
2023/07/03 07:21:56;;;;;;;13.65;1.50;;;18.00;99.90;;;;;;5091390;28;20093;-67
2023/07/03 07:24:24;;;;;;;7.90;0.97;;;18.00;99.90;;;;;;5092496;28;20522;-66
2023/07/03 07:26:54;;;;;;;7.57;1.08;;;18.00;99.90;;;;;;5098152;28;20231;-67
2023/07/03 07:29:21;;;;;;;10.02;1.23;;;18.00;99.90;;;;;;5092070;28;20139;-66
2023/07/03 07:31:46;;;;;;;9.80;1.08;;;17.90;99.90;;;;;;5090807;28;20055;-66
2023/07/03 07:34:12;;;;;;;9.70;0.93;;;17.70;99.90;;;;;;5092638;28;20387;-65
2023/07/03 07:36:39;;;;;;;13.93;1.10;;;17.60;99.90;;;;;;5092301;28;20048;-67
2023/07/03 07:39:05;;;;;;;;;;;17.60;99.90;;;;;;5092973;28;20094;-66
2023/07/03 07:41:32;;;;;;;10.48;0.90;;;17.60;99.90;;;;;;5093823;28;19920;-66
2023/07/03 07:43:58;;;;;;;10.02;1.30;;;17.80;99.90;;;;;;5096729;28;20591;-66
2023/07/03 07:46:28;;;;;;;11.27;1.00;;;17.90;99.90;;;;;;5096634;28;20090;-69
2023/07/03 07:48:56;;;;;;;7.00;0.70;;;18.00;99.90;;;;;;5096327;28;20048;-70
2023/07/03 07:51:22;;;;;;;6.82;0.80;;;18.20;99.90;;;;;;5095367;28;20127;-67
2023/07/03 07:53:48;;;;;;;6.65;0.73;;;18.30;99.90;;;;;;5096303;28;20048;-66
2023/07/03 07:56:14;;;;;;;9.85;0.65;;;18.40;99.90;;;;;;5078426;28;20044;-68
2023/07/03 07:58:40;;;;;;;8.73;0.60;;;18.60;99.90;;;;;;5095798;28;20055;-68
2023/07/03 08:01:06;;;;;;;6.60;0.60;;;18.70;99.90;;;;;;5112640;27;20052;-66
2023/07/03 08:03:32;;;;;;;9.23;0.60;;;18.60;99.90;;;;;;5096556;28;20044;-67
2023/07/03 08:06:03;;;;;;;5.40;0.70;;;18.50;99.90;;;;;;5095967;28;20040;-68
2023/07/03 08:08:30;;;;;;;7.32;0.60;;;18.30;99.90;;;;;;5078487;28;20048;-67
2023/07/03 08:10:59;;;;;;;11.35;1.63;;;18.30;99.90;;;;;;5094892;28;20044;-66
2023/07/03 08:13:25;;;;;;;5.75;0.70;;;18.20;99.90;;;;;;5096195;28;20048;-67
2023/07/03 08:15:51;;;;;;;8.73;0.75;;;18.00;99.90;;;;;;5095394;28;20036;-67
2023/07/03 08:18:18;;;;;;;7.15;0.70;;;17.90;99.90;;;;;;5078509;28;20054;-68
2023/07/03 08:20:45;;;;;;;5.40;0.50;;;17.80;99.90;;;;;;5094670;28;20395;-69
2023/07/03 08:23:11;;;;;;;9.05;0.70;;;17.70;99.90;;;;;;5095274;28;20449;-68
2023/07/03 08:25:37;;;;;;;5.53;0.68;;;17.80;99.90;;;;;;5096032;28;20044;-67
2023/07/03 08:28:04;;;;;;;6.25;0.60;;;18.00;99.90;;;;;;5113369;28;20124;-67
2023/07/03 08:30:30;;;;;;;5.03;0.60;;;18.30;99.90;;;;;;5098439;28;20054;-66
2023/07/03 08:32:56;;;;;;;4.63;0.50;;;18.50;99.90;;;;;;5114873;28;20043;-67
2023/07/03 08:35:22;;;;;;;7.82;0.70;;;18.90;99.90;;;;;;5115441;28;20052;-67
2023/07/03 08:37:48;;;;;;;3.50;0.43;;;19.20;99.90;;;;;;5132018;27;20130;-67
2023/07/03 08:40:19;;;;;;;4.40;0.50;;;19.30;99.90;;;;;;5114916;28;20090;-67
2023/07/03 08:42:55;;;;;;;6.80;0.70;;;19.30;99.90;;;;;;5114292;28;20470;-70
2023/07/03 08:45:28;;;;;;;3.75;0.40;;;19.30;99.90;;;;;;5116073;28;20040;-66
2023/07/03 08:47:55;;;;;;;7.60;0.60;;;19.40;99.90;;;;;;5114525;28;20043;-66
2023/07/03 08:50:23;;;;;;;6.10;0.52;;;19.50;99.90;;;;;;5097029;28;20112;-66
2023/07/03 08:52:58;;;;;;;3.58;0.55;;;19.60;99.90;;;;;;5114641;28;20141;-67
2023/07/03 08:55:31;;;;;;;7.75;0.65;;;19.60;99.90;;;;;;5115783;28;20043;-68
2023/07/03 08:57:57;;;;;;;4.47;0.60;;;19.50;99.90;;;;;;5114909;28;20392;-68
2023/07/03 09:00:23;;;;;;;4.20;0.60;;;19.50;99.90;;;;;;5094351;28;20052;-67
2023/07/03 09:03:17;;;;;;;6.37;0.70;;;19.60;99.90;;;;;;5094964;28;20048;-67
2023/07/03 09:06:15;;;;;;;6.40;0.73;;;19.70;99.90;;;;;;5093763;28;20302;-66
2023/07/03 09:09:18;;;;;;;4.88;0.50;;;19.80;99.90;;;;;;5095523;28;20515;-66
2023/07/03 09:11:53;;;;;;;5.32;0.70;;;19.90;99.90;;;;;;5095214;28;20052;-66
2023/07/03 09:14:27;;;;;;;8.82;0.60;;;19.90;99.90;;;;;;5095011;28;20052;-67
2023/07/03 09:16:53;;;;;;;6.10;0.80;;;20.00;99.90;;;;;;5094877;28;20127;-67
2023/07/03 09:19:24;;;;;;;7.67;0.70;;;20.00;99.90;;;;;;5077323;28;20543;-67
2023/07/03 09:21:54;;;;;;;7.40;0.80;;;19.90;99.90;;;;;;5093337;28;20090;-67
2023/07/03 09:24:40;;;;;;;9.23;0.70;;;20.00;99.90;;;;;;5095286;28;20056;-67
2023/07/03 09:27:15;;;;;;;8.65;1.10;;;20.10;99.90;;;;;;5094369;28;20403;-68
2023/07/03 09:29:42;;;;;;;9.60;0.90;;;20.00;99.90;;;;;;5113753;28;20043;-67
2023/07/03 09:32:31;;;;;;;8.80;0.77;;;19.90;99.90;;;;;;5114670;28;20047;-68
2023/07/03 09:35:12;;;;;;;8.50;0.77;;;19.80;99.90;;;;;;5112732;28;20065;-68
2023/07/03 09:37:40;;;;;;;6.75;0.95;;;19.80;99.90;;;;;;5097158;28;20101;-68
2023/07/03 09:40:12;;;;;;;8.05;1.00;;;19.90;99.90;;;;;;5114403;28;20044;-67
2023/07/03 09:42:40;;;;;;;7.45;0.80;;;19.90;99.90;;;;;;5114206;28;20047;-66
2023/07/03 09:45:16;;;;;;;5.60;0.85;;;19.80;99.90;;;;;;5147866;27;20060;-67
2023/07/03 09:47:52;;;;;;;11.63;1.42;;;19.70;99.90;;;;;;5096911;28;20059;-68
2023/07/03 09:50:35;;;;;;;10.50;0.80;;;19.50;99.90;;;;;;5114464;28;20050;-66
2023/07/03 09:53:03;;;;;;;7.15;0.70;;;19.40;99.90;;;;;;5113186;28;20052;-67
2023/07/03 09:55:29;;;;;;;6.75;0.82;;;19.40;99.90;;;;;;5096653;28;20051;-67
2023/07/03 09:57:55;;;;;;;5.60;0.60;;;19.50;99.90;;;;;;5112546;28;20051;-70
2023/07/03 10:00:25;;;;;;;7.47;0.70;;;19.70;99.90;;;;;;5110695;27;20063;-67
2023/07/03 10:02:57;;;;;;;3.75;0.40;;;19.70;99.90;;;;;;5110267;28;20123;-68
2023/07/03 10:05:32;;;;;;;7.45;0.60;;;19.80;99.70;;;;;;5112333;28;20096;-68
2023/07/03 10:08:04;;;;;;;7.15;0.60;;;19.80;99.30;;;;;;5114156;28;20391;-68
2023/07/03 10:10:33;;;;;;;7.05;0.50;;;19.70;98.50;;;;;;5113293;28;20119;-65
2023/07/03 10:13:20;;;;;;;4.38;0.50;;;19.80;98.70;;;;;;5113682;28;20093;-68
2023/07/03 10:15:47;;;;;;;3.63;0.60;;;20.10;98.50;;;;;;5109353;28;20048;-68
2023/07/03 10:18:12;;;;;;;;;;;20.10;97.90;;;;;;5093883;28;20055;-67
2023/07/03 10:20:43;;;;;;;8.03;0.40;;;20.10;97.40;;;;;;5093979;28;19943;-68
2023/07/03 10:23:17;;;;;;;4.25;0.40;;;20.00;97.50;;;;;;5093174;28;20052;-67
2023/07/03 10:25:48;;;;;;;7.38;0.80;;;19.80;98.10;;;;;;5093866;28;20120;-67
2023/07/03 10:28:29;;;;;;;5.35;0.50;;;20.00;97.90;;;;;;5092035;28;20403;-68
2023/07/03 10:31:00;;;;;;;6.22;0.45;;;20.20;95.70;;;;;;5108875;28;20039;-68
2023/07/03 10:33:32;;;;;;;8.55;0.70;;;20.40;95.20;;;;;;5113197;27;20388;-67
2023/07/03 10:36:01;;;;;;;7.28;0.65;;;20.50;95.60;;;;;;5112972;28;20396;-71
2023/07/03 10:38:48;;;;;;;4.90;0.57;;;;;;;;;;5095737;28;20392;-69
2023/07/03 10:41:14;;;;;;;;;;;;;;;;;;5098584;28;20051;-67
2023/07/03 10:43:42;;;;;;;;;;;;;;;;;;5113960;28;19924;-69
2023/07/03 10:46:13;;;;;;;5.03;0.65;;;;;;;;;;5113179;28;19924;-67
2023/07/03 10:48:40;;;;;;;5.38;0.70;;;;;;;;;;5113750;28;20043;-69
2023/07/03 10:51:06;;;;;;;6.13;0.50;;;;;;;;;;5112241;28;20044;-67
2023/07/03 10:53:42;;;;;;;7.17;0.60;;;;;;;;;;5113553;28;20483;-68
2023/07/03 10:56:18;;;;;;;5.07;0.50;;;;;;;;;;5113222;28;20290;-68
2023/07/03 10:58:51;;;;;;;3.47;0.40;;;;;;;;;;5113535;28;20050;-68
2023/07/03 11:01:31;;;;;;;5.10;0.40;;;;;;;;;;5094879;28;20517;-68
2023/07/03 11:04:09;;;;;;;5.40;0.60;;;;;;;;;;5112306;28;20078;-67
2023/07/03 11:06:39;;;;;;;4.90;0.40;;;;;;;;;;5111289;28;20040;-68
2023/07/03 11:09:21;;;;;;;7.53;0.50;;;;;;;;;;5112084;28;20075;-68
2023/07/03 11:11:56;;;;;;;6.03;0.40;;;;;;;;;;5112236;28;20043;-67
2023/07/03 11:14:31;;;;;;;3.65;0.47;;;;;;;;;;5111545;28;20125;-67
2023/07/03 11:17:00;;;;;;;4.00;0.50;;;;;;;;;;5094806;28;20047;-68
2023/07/03 11:19:39;;;;;;;8.40;0.70;;;;;;;;;;5111501;28;20368;-68
2023/07/03 11:22:19;;;;;;;7.57;0.52;;;;;;;;;;5112786;28;20043;-69
2023/07/03 11:25:00;;;;;;;7.20;0.50;;;;;;;;;;5111995;28;20399;-68
2023/07/03 11:27:33;;;;;;;10.05;0.60;;;;;;;;;;5132019;27;20292;-67
2023/07/03 11:29:59;;;;;;;6.05;0.52;;;;;;;;;;5106726;28;20455;-67
2023/07/03 11:32:26;;;;;;;5.88;0.52;;;;;;;;;;5094501;28;20062;-72
2023/07/03 11:34:52;;;;;;;5.05;0.45;;;;;;;;;;5112965;28;20478;-67
2023/07/03 11:37:30;;;;;;;9.07;0.50;;;;;;;;;;5077648;28;20047;-67
2023/07/03 11:39:56;;;;;;;7.30;0.70;;;;;;;;;;5113041;28;20047;-68
2023/07/03 11:42:26;;;;;;;5.07;0.50;;;;;;;;;;5112685;28;20100;-68
2023/07/03 11:45:00;;;;;;;7.40;0.63;;;;;;;;;;5112861;28;20043;-67
2023/07/03 11:47:28;;;;;;;5.07;0.50;;;;;;;;;;5094148;28;20538;-66
2023/07/03 11:49:59;;;;;;;5.53;0.60;;;;;;;;;;5112789;28;20051;-66
2023/07/03 11:52:29;;;;;;;6.30;0.70;;;;;;;;;;5094520;28;20043;-67
2023/07/03 11:54:59;;;;;;;6.88;0.60;;;;;;;;;;5094515;28;20054;-67
2023/07/03 11:57:30;;;;;;;4.65;0.60;;;;;;;;;;5094781;28;20364;-68
2023/07/03 12:00:13;;;;;;;4.07;0.30;;;;;;;;;;5112441;28;20509;-68
2023/07/03 12:02:39;;;;;;;6.47;0.50;;;;;;;;;;5093032;28;20043;-67
2023/07/03 12:05:09;;;;;;;6.80;0.75;;;;;;;;;;5132861;28;20047;-68
2023/07/03 12:07:35;;;;;;;3.40;0.45;;;;;;;;;;5115609;28;20095;-67
2023/07/03 12:10:20;;;;;;;6.67;0.50;;;;;;;;;;5114989;28;20054;-67
2023/07/03 12:13:05;;;;;;;4.78;0.40;;;;;;;;;;5133240;28;20628;-68
2023/07/03 12:15:31;;;;;;;3.90;0.40;;;;;;;;;;5122059;28;20039;-67
2023/07/03 12:18:01;;;;;;;6.75;0.60;;;;;;;;;;5094408;28;20134;-68
2023/07/03 12:20:27;;;;;;;7.18;0.70;;;;;;;;;;5094043;28;20090;-68
2023/07/03 12:22:53;;;;;;;7.88;0.80;;;;;;;;;;5094861;28;20143;-69
2023/07/03 12:25:29;;;;;;;5.88;0.73;;;;;;;;;;5112193;28;20042;-68
2023/07/03 12:28:11;;;;;;;5.93;0.60;;;;;;;;;;5112940;28;20487;-68
2023/07/03 12:30:38;;;;;;;6.53;0.50;;;;;;;;;;5130468;27;20349;-67
2023/07/03 12:33:06;;;;;;;5.70;0.60;;;;;;;;;;5136024;27;20051;-70
2023/07/03 12:35:37;;;;;;;9.60;0.70;;;;;;;;;;5101099;27;20078;-67
2023/07/03 12:38:07;;;;;;;7.78;0.60;;;;;;;;;;5136631;27;20051;-68
2023/07/03 12:40:33;;;;;;;6.05;0.60;;;;;;;;;;5117882;27;20643;-68
2023/07/03 12:42:59;;;;;;;4.53;0.60;;;;;;;;;;5136658;27;20047;-67
2023/07/03 12:45:29;;;;;;;7.00;0.60;;;;;;;;;;5118013;27;20395;-66
2023/07/03 12:48:09;;;;;;;7.15;0.70;;;;;;;;;;5118240;27;20118;-67
2023/07/03 12:50:45;;;;;;;5.50;0.82;;;;;;;;;;5135091;27;20054;-67
2023/07/03 12:53:11;;;;;;;6.40;0.47;;;;;;;;;;5117959;27;20079;-67
2023/07/03 12:55:38;;;;;;;6.32;0.50;;;;;;;;;;5136051;27;20047;-67
2023/07/03 12:58:05;;;;;;;6.93;0.50;;;;;;;;;;5118394;27;20115;-67
2023/07/03 13:00:32;;;;;;;4.93;0.50;;;;;;;;;;5135961;27;20089;-68
2023/07/03 13:03:04;;;;;;;3.05;0.32;;;;;;;;;;5099690;28;20058;-67
2023/07/03 13:05:32;;;;;;;4.03;0.45;;;;;;;;;;5094919;27;20065;-67
2023/07/03 13:07:58;;;;;;;6.07;0.60;;;;;;;;;;5080818;28;20059;-67
2023/07/03 13:10:24;;;;;;;4.80;0.75;;;;;;;;;;5097183;28;20083;-68
2023/07/03 13:13:10;;;;;;;7.07;0.50;;;;;;;;;;5080593;28;20043;-67
2023/07/03 13:15:41;;;;;;;8.18;0.60;;;;;;;;;;5114948;28;20071;-68
2023/07/03 13:18:13;;;;;;;11.63;0.60;;;;;;;;;;5080588;28;20043;-68
2023/07/03 13:20:58;;;;;;;9.38;0.80;;;;;;;;;;5080300;28;20055;-67
2023/07/03 13:23:28;;;;;;;9.45;0.60;;;;;;;;;;5097353;28;20104;-68
2023/07/03 13:25:56;;;;;;;7.70;0.80;;;;;;;;;;5096746;28;20040;-67
2023/07/03 13:28:24;;;;;;;10.07;0.75;;;;;;;;;;5114893;28;20067;-67